createdAt,value
2023-07-22T00:01:53.343Z,23.80
2023-07-22T00:04:21.118Z,23.75
2023-07-22T00:06:48.668Z,23.75
2023-07-22T00:09:16.166Z,23.71
2023-07-22T00:11:43.936Z,23.60
2023-07-22T00:14:11.471Z,23.53
2023-07-22T00:16:39.005Z,23.44
2023-07-22T00:19:08.311Z,23.34
2023-07-22T00:21:35.867Z,23.32
2023-07-22T00:24:03.438Z,23.27
2023-07-22T00:26:31.199Z,23.26
2023-07-22T00:28:58.675Z,23.20
2023-07-22T00:31:26.310Z,23.10
2023-07-22T00:33:54.194Z,23.10
2023-07-22T00:36:21.689Z,22.96
2023-07-22T00:38:49.246Z,23.06
2023-07-22T00:41:17.048Z,22.99
2023-07-22T00:43:45.438Z,23.00
2023-07-22T00:46:12.949Z,22.76
2023-07-22T00:48:40.874Z,22.95
2023-07-22T00:51:08.393Z,22.94
2023-07-22T00:53:35.919Z,22.92
2023-07-22T00:56:04.062Z,22.96
2023-07-22T00:58:32.121Z,22.93
2023-07-22T01:00:59.679Z,22.89
2023-07-22T01:03:27.697Z,22.77
2023-07-22T01:05:55.914Z,22.86
2023-07-22T01:08:23.457Z,22.73
2023-07-22T01:10:51.819Z,22.73
2023-07-22T01:13:19.377Z,22.82
2023-07-22T01:15:46.994Z,22.81
2023-07-22T01:18:14.745Z,22.76
2023-07-22T01:20:42.627Z,22.73
2023-07-22T01:23:10.569Z,22.82
2023-07-22T01:25:38.497Z,22.79
2023-07-22T01:28:11.608Z,22.87
2023-07-22T01:30:39.469Z,22.87
2023-07-22T01:33:07.173Z,22.87
2023-07-22T01:35:36.345Z,22.88
2023-07-22T01:38:04.459Z,22.87
2023-07-22T01:40:32.342Z,22.76
2023-07-22T01:42:59.902Z,22.85
2023-07-22T01:45:27.621Z,22.68
2023-07-22T01:47:55.231Z,22.83
2023-07-22T01:50:23.597Z,22.77
2023-07-22T01:52:51.470Z,22.73
2023-07-22T01:55:19.744Z,22.70
2023-07-22T01:57:47.307Z,22.62
2023-07-22T02:00:16.328Z,22.72
2023-07-22T02:02:45.276Z,22.76
2023-07-22T02:05:13.394Z,22.76
2023-07-22T02:07:41.017Z,22.72
2023-07-22T02:10:10.715Z,22.58
2023-07-22T02:12:38.297Z,22.61
2023-07-22T02:15:06.485Z,22.71
2023-07-22T02:17:35.126Z,22.59
2023-07-22T02:20:02.804Z,22.61
2023-07-22T02:22:30.784Z,22.70
2023-07-22T02:24:58.535Z,22.74
2023-07-22T02:27:26.007Z,22.73
2023-07-22T02:29:53.828Z,22.66
2023-07-22T02:32:21.414Z,22.63
2023-07-22T02:34:48.920Z,22.63
2023-07-22T02:37:16.689Z,22.60
2023-07-22T02:39:44.122Z,22.55
2023-07-22T02:42:11.643Z,22.52
2023-07-22T02:44:39.601Z,22.50
2023-07-22T02:47:07.230Z,22.58
2023-07-22T02:49:34.704Z,22.59
2023-07-22T02:52:02.526Z,22.61
2023-07-22T02:54:30.051Z,22.65
2023-07-22T02:56:57.524Z,22.68
2023-07-22T02:59:25.566Z,22.70
2023-07-22T03:01:54.087Z,22.72
2023-07-22T03:04:21.703Z,22.69
2023-07-22T03:06:49.512Z,22.72
2023-07-22T03:09:17.007Z,22.70
2023-07-22T03:11:44.495Z,22.65
2023-07-22T03:14:12.343Z,22.65
2023-07-22T03:16:39.837Z,22.63
2023-07-22T03:19:07.431Z,22.64
2023-07-22T03:24:02.407Z,22.57
2023-07-22T03:26:30.027Z,22.54
2023-07-22T03:28:57.832Z,22.60
2023-07-22T03:31:25.396Z,22.60
2023-07-22T03:33:53.617Z,22.49
2023-07-22T03:36:21.403Z,22.45
2023-07-22T03:38:49.221Z,22.64
2023-07-22T03:41:16.711Z,22.70
2023-07-22T03:43:44.722Z,22.73
2023-07-22T03:46:12.225Z,22.76
2023-07-22T03:48:39.750Z,22.71
2023-07-22T03:51:19.368Z,22.75
2023-07-22T03:53:48.948Z,22.83
2023-07-22T03:56:16.813Z,22.78
2023-07-22T03:58:44.302Z,22.87
2023-07-22T04:01:12.720Z,22.92
2023-07-22T04:03:40.689Z,22.89
2023-07-22T04:06:08.397Z,23.00
2023-07-22T04:08:36.191Z,22.93
2023-07-22T04:11:04.365Z,23.08
2023-07-22T04:13:31.955Z,23.13
2023-07-22T04:15:59.501Z,23.14
2023-07-22T04:18:27.268Z,23.21
2023-07-22T04:21:00.577Z,23.25
2023-07-22T04:23:28.645Z,22.99
2023-07-22T04:25:56.171Z,23.26
2023-07-22T04:28:26.166Z,23.24
2023-07-22T04:31:00.144Z,23.43
2023-07-22T04:33:29.062Z,23.48
2023-07-22T04:36:00.845Z,23.53
2023-07-22T04:38:29.228Z,23.32
2023-07-22T04:40:57.006Z,23.60
2023-07-22T04:43:24.493Z,23.57
2023-07-22T04:45:52.015Z,23.44
2023-07-22T04:48:23.268Z,23.13
2023-07-22T04:50:51.113Z,23.24
2023-07-22T04:53:19.282Z,23.61
2023-07-22T04:55:47.169Z,23.68
2023-07-22T04:58:14.693Z,23.33
2023-07-22T05:00:43.857Z,23.47
2023-07-22T05:03:11.889Z,23.02
2023-07-22T05:05:39.533Z,22.88
2023-07-22T05:08:08.602Z,22.71
2023-07-22T05:10:36.651Z,23.34
2023-07-22T05:13:04.200Z,23.08
2023-07-22T05:15:31.700Z,23.52
2023-07-22T05:17:59.539Z,22.76
2023-07-22T05:20:27.533Z,22.98
2023-07-22T05:22:55.202Z,22.71
2023-07-22T05:25:23.031Z,23.31
2023-07-22T05:27:50.695Z,23.13
2023-07-22T05:30:33.064Z,22.61
2023-07-22T05:33:02.670Z,22.50
2023-07-22T05:35:30.397Z,22.35
2023-07-22T05:37:57.969Z,22.45
2023-07-22T05:40:25.919Z,22.72
2023-07-22T05:42:53.452Z,22.92
2023-07-22T05:45:21.057Z,22.42
2023-07-22T05:47:48.953Z,23.04
2023-07-22T05:50:16.537Z,23.05
2023-07-22T05:52:44.366Z,23.24
2023-07-22T05:55:12.133Z,23.09
2023-07-22T05:57:39.594Z,22.55
2023-07-22T06:00:09.934Z,23.11
2023-07-22T06:02:40.107Z,22.47
2023-07-22T06:05:08.246Z,22.83
2023-07-22T06:07:35.941Z,22.58
2023-07-22T06:10:03.564Z,22.76
2023-07-22T06:12:31.586Z,23.12
2023-07-22T06:14:59.209Z,22.55
2023-07-22T06:17:26.919Z,22.73
2023-07-22T06:19:54.831Z,22.92
2023-07-22T06:22:22.370Z,22.37
2023-07-22T06:24:49.998Z,23.19
2023-07-22T06:27:17.889Z,23.59
2023-07-22T06:29:45.352Z,23.65
2023-07-22T06:32:13.105Z,23.32
2023-07-22T06:34:40.926Z,23.01
2023-07-22T06:37:08.489Z,22.99
2023-07-22T06:39:35.992Z,23.10
2023-07-22T06:42:03.872Z,23.31
2023-07-22T06:44:32.747Z,23.57
2023-07-22T06:47:01.132Z,23.55
2023-07-22T06:49:28.900Z,23.48
2023-07-22T06:51:56.415Z,23.37
2023-07-22T06:54:24.015Z,22.84
2023-07-22T06:56:51.841Z,23.11
2023-07-22T06:59:19.282Z,23.60
2023-07-22T07:01:46.837Z,23.40
2023-07-22T07:04:14.828Z,22.98
2023-07-22T07:06:42.464Z,22.78
2023-07-22T07:09:09.998Z,23.61
2023-07-22T07:11:37.852Z,23.65
2023-07-22T07:14:05.426Z,23.20
2023-07-22T07:16:33.488Z,23.41
2023-07-22T07:19:02.291Z,23.34
2023-07-22T07:21:29.832Z,23.30
2023-07-22T07:23:57.422Z,23.40
2023-07-22T07:26:25.579Z,23.60
2023-07-22T07:28:53.883Z,23.87
2023-07-22T07:31:21.472Z,23.39
2023-07-22T07:33:49.281Z,23.80
2023-07-22T07:36:16.764Z,23.72
2023-07-22T07:38:44.294Z,23.89
2023-07-22T07:41:13.810Z,24.13
2023-07-22T07:43:42.076Z,23.80
2023-07-22T07:46:23.771Z,23.71
2023-07-22T07:48:53.985Z,23.58
2023-07-22T07:51:22.561Z,23.54
2023-07-22T07:53:50.837Z,23.93
2023-07-22T07:56:19.644Z,24.25
2023-07-22T07:58:48.549Z,24.44
2023-07-22T08:01:16.701Z,24.45
2023-07-22T08:03:45.569Z,24.48
2023-07-22T08:06:13.656Z,24.26
2023-07-22T08:08:41.444Z,24.78
2023-07-22T08:11:10.874Z,24.76
2023-07-22T08:13:38.964Z,25.45
2023-07-22T08:16:08.875Z,25.37
2023-07-22T08:18:37.364Z,24.69
2023-07-22T08:21:07.534Z,24.80
2023-07-22T08:23:35.671Z,25.06
2023-07-22T08:26:06.526Z,25.53
2023-07-22T08:28:34.392Z,25.89
2023-07-22T08:31:02.372Z,25.69
2023-07-22T08:36:03.691Z,25.70
2023-07-22T08:38:32.261Z,25.66
2023-07-22T08:40:59.758Z,25.23
2023-07-22T08:43:29.047Z,25.28
2023-07-22T08:46:00.842Z,25.60
2023-07-22T08:48:31.257Z,25.70
2023-07-22T08:51:04.832Z,25.48
2023-07-22T08:53:34.508Z,25.52
2023-07-22T08:56:02.650Z,25.40
2023-07-22T08:58:31.320Z,25.91
2023-07-22T09:00:59.529Z,26.27
2023-07-22T09:03:27.481Z,25.55
2023-07-22T09:05:55.743Z,25.66
2023-07-22T09:08:23.245Z,25.83
2023-07-22T09:10:51.155Z,25.56
2023-07-22T09:13:20.652Z,25.81
2023-07-22T09:15:49.339Z,26.43
2023-07-22T09:18:17.275Z,25.86
2023-07-22T09:20:44.793Z,26.36
2023-07-22T09:23:14.580Z,25.93
2023-07-22T09:25:43.841Z,25.84
2023-07-22T09:28:11.555Z,26.55
2023-07-22T09:30:40.704Z,26.87
2023-07-22T09:33:21.584Z,27.15
2023-07-22T09:35:50.412Z,27.36
2023-07-22T09:38:36.162Z,27.47
2023-07-22T09:41:03.734Z,27.11
2023-07-22T09:43:32.118Z,26.92
2023-07-22T09:46:25.370Z,27.18
2023-07-22T09:48:56.666Z,27.28
2023-07-22T09:51:24.243Z,27.69
2023-07-22T09:54:01.654Z,27.84
2023-07-22T09:56:29.688Z,27.85
2023-07-22T09:58:59.937Z,28.30
2023-07-22T10:01:27.675Z,27.80
2023-07-22T10:03:57.272Z,27.24
2023-07-22T10:06:31.130Z,27.76
2023-07-22T10:09:03.430Z,28.07
2023-07-22T10:11:31.279Z,28.21
2023-07-22T10:13:59.836Z,28.72
2023-07-22T10:16:28.114Z,28.32
2023-07-22T10:18:56.523Z,28.82
2023-07-22T10:21:25.391Z,29.05
2023-07-22T10:23:53.383Z,28.89
2023-07-22T10:26:29.081Z,29.35
2023-07-22T10:29:00.886Z,28.91
2023-07-22T10:31:32.279Z,28.79
2023-07-22T10:34:00.195Z,28.72
2023-07-22T10:36:30.543Z,29.09
2023-07-22T10:39:00.737Z,28.85
2023-07-22T10:41:30.358Z,29.29
2023-07-22T10:44:03.496Z,29.36
2023-07-22T10:46:36.092Z,28.83
2023-07-22T10:49:12.256Z,28.67
2023-07-22T10:51:40.266Z,28.89
2023-07-22T10:54:15.259Z,28.76
2023-07-22T10:56:45.869Z,28.53
2023-07-22T10:59:13.825Z,28.65
2023-07-22T11:01:43.306Z,29.13
2023-07-22T11:04:51.213Z,29.06
2023-07-22T11:07:33.666Z,28.97
2023-07-22T11:10:19.060Z,29.42
2023-07-22T11:12:47.726Z,29.71
2023-07-22T11:15:19.295Z,28.83
2023-07-22T11:17:46.955Z,29.59
2023-07-22T11:20:14.806Z,29.77
2023-07-22T11:22:42.622Z,29.52
2023-07-22T11:25:10.908Z,29.37
2023-07-22T11:27:38.758Z,29.52
2023-07-22T11:30:06.824Z,29.42
2023-07-22T11:32:35.291Z,29.41
2023-07-22T11:35:03.229Z,28.71
2023-07-22T11:37:31.214Z,28.58
2023-07-22T11:40:02.752Z,29.11
2023-07-22T11:42:31.805Z,28.67
2023-07-22T11:44:59.485Z,28.71
2023-07-22T11:47:31.539Z,28.88
2023-07-22T11:49:59.470Z,28.66
2023-07-22T11:52:27.006Z,28.98
2023-07-22T11:54:54.512Z,29.15
2023-07-22T11:57:23.819Z,29.20
2023-07-22T11:59:55.713Z,28.67
2023-07-22T12:02:25.287Z,28.97
2023-07-22T12:05:04.131Z,29.21
2023-07-22T12:07:35.490Z,28.79
2023-07-22T12:10:06.704Z,29.37
2023-07-22T12:12:34.520Z,28.87
2023-07-22T12:15:14.679Z,29.64
2023-07-22T12:18:00.377Z,29.58
2023-07-22T12:20:34.235Z,29.16
2023-07-22T12:23:02.291Z,28.76
2023-07-22T12:25:30.655Z,28.75
2023-07-22T12:27:58.136Z,28.87
2023-07-22T12:30:28.258Z,28.72
2023-07-22T12:32:55.861Z,29.01
2023-07-22T12:35:23.351Z,28.79
2023-07-22T12:37:51.190Z,29.44
2023-07-22T12:40:18.839Z,28.77
2023-07-22T12:42:46.768Z,29.26
2023-07-22T12:45:14.538Z,29.10
2023-07-22T12:47:42.070Z,29.25
2023-07-22T12:50:09.906Z,28.63
2023-07-22T12:52:38.654Z,28.64
2023-07-22T12:55:06.426Z,28.69
2023-07-22T12:57:34.042Z,28.58
2023-07-22T13:00:02.106Z,28.71
2023-07-22T13:02:29.816Z,28.59
2023-07-22T13:04:57.381Z,28.79
2023-07-22T13:07:25.164Z,29.01
2023-07-22T13:09:54.658Z,28.82
2023-07-22T13:12:25.331Z,28.52
2023-07-22T13:14:52.934Z,28.01
2023-07-22T13:17:20.509Z,28.78
2023-07-22T13:19:48.319Z,28.72
2023-07-22T13:22:15.817Z,29.01
2023-07-22T13:24:43.521Z,29.17
2023-07-22T13:27:11.373Z,28.98
2023-07-22T13:29:38.844Z,28.74
2023-07-22T13:32:07.220Z,28.66
2023-07-22T13:34:34.973Z,29.46
2023-07-22T13:37:04.028Z,29.46
2023-07-22T13:39:31.730Z,29.83
2023-07-22T13:41:59.474Z,29.50
2023-07-22T13:44:27.036Z,29.11
2023-07-22T13:46:54.672Z,29.76
2023-07-22T13:49:22.458Z,29.58
2023-07-22T13:51:49.989Z,29.44
2023-07-22T13:54:17.479Z,29.81
2023-07-22T13:56:46.858Z,29.88
2023-07-22T13:59:15.141Z,29.48
2023-07-22T14:01:42.725Z,29.29
2023-07-22T14:04:10.612Z,29.78
2023-07-22T14:06:38.667Z,29.61
2023-07-22T14:09:06.226Z,29.19
2023-07-22T14:11:33.969Z,29.64
2023-07-22T14:14:01.473Z,29.79
2023-07-22T14:16:29.054Z,29.84
2023-07-22T14:18:56.920Z,29.09
2023-07-22T14:21:24.508Z,29.64
2023-07-22T14:23:52.353Z,29.68
2023-07-22T14:26:21.648Z,29.73
2023-07-22T14:28:49.207Z,29.54
2023-07-22T14:31:16.771Z,29.49
2023-07-22T14:33:44.625Z,29.57
2023-07-22T14:36:13.138Z,29.09
2023-07-22T14:38:40.680Z,29.00
2023-07-22T14:41:08.533Z,28.80
2023-07-22T14:43:36.281Z,29.52
2023-07-22T14:46:03.803Z,29.25
2023-07-22T14:48:31.622Z,29.12
2023-07-22T14:50:59.199Z,29.37
2023-07-22T14:53:26.696Z,29.65
2023-07-22T14:55:54.596Z,29.55
2023-07-22T14:58:22.111Z,29.57
2023-07-22T15:00:49.635Z,29.55
2023-07-22T15:03:17.685Z,29.69
2023-07-22T15:05:45.260Z,29.89
2023-07-22T15:08:12.782Z,29.66
2023-07-22T15:10:40.540Z,29.78
2023-07-22T15:13:08.184Z,29.84
2023-07-22T15:15:35.691Z,29.89
2023-07-22T15:18:03.583Z,29.51
2023-07-22T15:20:31.130Z,29.53
2023-07-22T15:22:59.022Z,29.63
2023-07-22T15:25:26.898Z,29.57
2023-07-22T15:27:54.434Z,29.95
2023-07-22T15:30:22.081Z,29.47
2023-07-22T15:32:52.070Z,30.00
2023-07-22T15:35:20.574Z,29.07
2023-07-22T15:37:50.030Z,29.49
2023-07-22T15:40:17.614Z,29.81
2023-07-22T15:42:45.238Z,30.00
2023-07-22T15:45:13.062Z,29.64
2023-07-22T15:47:40.610Z,29.78
2023-07-22T15:50:09.051Z,29.65
2023-07-22T15:52:37.983Z,29.56
2023-07-22T15:55:06.355Z,29.76
2023-07-22T15:57:33.851Z,28.86
2023-07-22T16:00:02.785Z,28.98
2023-07-22T16:02:32.393Z,29.39
2023-07-22T16:05:00.526Z,29.36
2023-07-22T16:07:28.076Z,29.34
2023-07-22T16:09:55.562Z,29.25
2023-07-22T16:12:23.391Z,29.37
2023-07-22T16:14:51.082Z,29.31
2023-07-22T16:17:18.551Z,29.39
2023-07-22T16:19:46.692Z,29.37
2023-07-22T16:22:14.272Z,29.29
2023-07-22T16:24:42.217Z,29.25
2023-07-22T16:27:10.070Z,29.07
2023-07-22T16:29:37.570Z,29.28
2023-07-22T16:32:05.812Z,29.39
2023-07-22T16:34:33.648Z,29.25
2023-07-22T16:37:01.112Z,29.35
2023-07-22T16:39:29.289Z,29.23
2023-07-22T16:41:57.428Z,29.16
2023-07-22T16:44:24.963Z,29.12
2023-07-22T16:46:52.469Z,29.00
2023-07-22T16:49:20.326Z,29.07
2023-07-22T16:51:48.190Z,29.01
2023-07-22T16:54:16.037Z,28.96
2023-07-22T16:56:43.818Z,29.06
2023-07-22T16:59:11.393Z,29.06
2023-07-22T17:01:39.646Z,29.20
2023-07-22T17:04:08.988Z,29.30
2023-07-22T17:06:36.511Z,29.24
2023-07-22T17:09:04.130Z,29.00
2023-07-22T17:11:32.325Z,29.16
2023-07-22T17:14:00.055Z,29.01
2023-07-22T17:16:27.799Z,29.09
2023-07-22T17:18:55.710Z,29.07
2023-07-22T17:21:23.303Z,29.12
2023-07-22T17:23:50.897Z,29.01
2023-07-22T17:26:18.719Z,29.14
2023-07-22T17:28:46.267Z,29.16
2023-07-22T17:31:13.925Z,29.11
2023-07-22T17:33:42.228Z,29.10
2023-07-22T17:36:09.774Z,29.06
2023-07-22T17:38:37.330Z,29.05
2023-07-22T17:41:05.143Z,29.02
2023-07-22T17:43:32.724Z,28.97
2023-07-22T17:46:00.297Z,29.03
2023-07-22T17:48:28.207Z,28.99
2023-07-22T17:50:55.781Z,28.95
2023-07-22T17:53:23.328Z,28.88
2023-07-22T17:55:51.186Z,28.82
2023-07-22T17:58:19.012Z,28.79
2023-07-22T18:00:46.585Z,28.76
2023-07-22T18:03:14.543Z,28.66
2023-07-22T18:05:49.148Z,28.64
2023-07-22T18:08:16.979Z,28.63
2023-07-22T18:10:44.459Z,28.56
2023-07-22T18:13:11.994Z,28.53
2023-07-22T18:15:39.843Z,28.42
2023-07-22T18:18:08.788Z,28.32
2023-07-22T18:20:36.314Z,28.28
2023-07-22T18:23:04.061Z,28.27
2023-07-22T18:25:31.628Z,28.23
2023-07-22T18:27:59.230Z,28.18
2023-07-22T18:30:27.039Z,28.17
2023-07-22T18:32:54.633Z,28.15
2023-07-22T18:35:22.188Z,28.13
2023-07-22T18:37:50.038Z,27.99
2023-07-22T18:40:17.543Z,27.97
2023-07-22T18:42:45.182Z,28.00
2023-07-22T18:45:13.059Z,27.87
2023-07-22T18:47:40.598Z,27.85
2023-07-22T18:50:08.826Z,27.66
2023-07-22T18:52:36.601Z,27.68
2023-07-22T18:55:04.372Z,27.66
2023-07-22T18:57:31.951Z,27.63
2023-07-22T18:59:59.738Z,27.61
2023-07-22T19:02:27.254Z,27.52
2023-07-22T19:04:56.201Z,27.48
2023-07-22T19:07:24.062Z,27.49
2023-07-22T19:09:51.589Z,27.39
2023-07-22T19:12:19.233Z,27.45
2023-07-22T19:14:47.114Z,27.42
2023-07-22T19:17:14.658Z,27.41
2023-07-22T19:19:42.899Z,27.30
2023-07-22T19:22:10.799Z,27.22
2023-07-22T19:24:38.357Z,27.40
2023-07-22T19:27:06.129Z,27.42
2023-07-22T19:29:34.024Z,27.35
2023-07-22T19:32:01.644Z,27.36
2023-07-22T19:34:29.248Z,27.39
2023-07-22T19:36:57.108Z,27.36
2023-07-22T19:39:24.701Z,27.21
2023-07-22T19:41:52.242Z,27.24
2023-07-22T19:44:20.122Z,27.24
2023-07-22T19:46:47.647Z,27.18
2023-07-22T19:49:15.323Z,27.12
2023-07-22T19:51:43.141Z,27.08
2023-07-22T19:54:10.752Z,26.97
2023-07-22T19:56:38.438Z,27.03
2023-07-22T19:59:06.226Z,27.01
2023-07-22T20:01:33.953Z,26.96
2023-07-22T20:04:01.881Z,26.89
2023-07-22T20:06:29.428Z,26.86
2023-07-22T20:08:56.974Z,26.72
2023-07-22T20:11:24.908Z,26.74
2023-07-22T20:13:52.515Z,26.59
2023-07-22T20:16:20.069Z,26.59
2023-07-22T20:18:47.985Z,26.54
2023-07-22T20:21:16.139Z,26.53
2023-07-22T20:23:45.912Z,26.52
2023-07-22T20:26:13.802Z,26.55
2023-07-22T20:28:49.865Z,26.55
2023-07-22T20:31:17.658Z,26.50
2023-07-22T20:33:45.270Z,26.48
2023-07-22T20:36:14.524Z,26.47
2023-07-22T20:38:43.917Z,26.42
2023-07-22T20:41:12.447Z,26.41
2023-07-22T20:43:40.094Z,26.35
2023-07-22T20:46:08.046Z,26.35
2023-07-22T20:48:35.653Z,26.28
2023-07-22T20:51:04.168Z,26.25
2023-07-22T20:53:32.449Z,26.10
2023-07-22T20:56:01.058Z,26.13
2023-07-22T20:58:29.824Z,25.89
2023-07-22T21:01:01.014Z,25.97
2023-07-22T21:03:28.756Z,25.96
2023-07-22T21:06:00.064Z,25.77
2023-07-22T21:08:29.471Z,25.84
2023-07-22T21:10:57.200Z,25.63
2023-07-22T21:13:24.753Z,25.65
2023-07-22T21:15:52.627Z,25.83
2023-07-22T21:18:21.783Z,25.78
2023-07-22T21:20:49.359Z,25.70
2023-07-22T21:23:17.101Z,25.62
2023-07-22T21:25:44.616Z,25.66
2023-07-22T21:28:13.667Z,25.63
2023-07-22T21:30:41.910Z,25.76
2023-07-22T21:33:09.655Z,25.77
2023-07-22T21:35:37.293Z,25.76
2023-07-22T21:38:05.133Z,25.77
2023-07-22T21:40:33.740Z,25.84
2023-07-22T21:43:02.002Z,25.85
2023-07-22T21:45:29.828Z,25.78
2023-07-22T21:47:57.459Z,25.82
2023-07-22T21:50:25.076Z,25.75
2023-07-22T21:52:53.451Z,25.77
2023-07-22T21:55:21.676Z,25.71
2023-07-22T21:57:49.225Z,25.53
2023-07-22T22:00:17.358Z,25.35
2023-07-22T22:02:45.262Z,25.31
2023-07-22T22:05:12.832Z,25.28
2023-07-22T22:07:40.332Z,25.35
2023-07-22T22:10:09.934Z,25.27
2023-07-22T22:12:37.984Z,25.41
2023-07-22T22:15:06.560Z,25.43
2023-07-22T22:17:40.241Z,25.37
2023-07-22T22:20:14.292Z,25.30
2023-07-22T22:22:42.093Z,25.21
2023-07-22T22:25:09.924Z,25.18
2023-07-22T22:27:37.471Z,25.10
2023-07-22T22:30:06.025Z,25.05
2023-07-22T22:32:33.714Z,25.03
2023-07-22T22:35:01.265Z,24.99
2023-07-22T22:37:29.130Z,24.99
2023-07-22T22:39:56.856Z,25.03
2023-07-22T22:42:25.743Z,25.00
2023-07-22T22:44:53.528Z,24.98
2023-07-22T22:47:21.052Z,24.88
2023-07-22T22:49:48.606Z,24.98
2023-07-22T22:52:16.432Z,24.87
2023-07-22T22:54:45.165Z,24.96
2023-07-22T22:57:12.677Z,24.89
2023-07-22T22:59:40.483Z,24.93
2023-07-22T23:02:08.105Z,24.82
2023-07-22T23:04:35.654Z,24.80
2023-07-22T23:07:05.579Z,24.63
2023-07-22T23:09:33.158Z,24.64
2023-07-22T23:12:00.714Z,24.63
2023-07-22T23:14:28.497Z,24.58
2023-07-22T23:16:56.033Z,24.57
2023-07-22T23:19:23.538Z,24.36
2023-07-22T23:21:51.323Z,24.44
2023-07-22T23:24:18.914Z,24.37
2023-07-22T23:26:46.450Z,24.36
2023-07-22T23:29:14.212Z,24.34
2023-07-22T23:31:42.428Z,24.19
2023-07-22T23:34:10.262Z,24.25
2023-07-22T23:36:38.533Z,24.27
2023-07-22T23:39:07.636Z,24.22
2023-07-22T23:41:35.326Z,24.08
2023-07-22T23:44:04.536Z,24.04
2023-07-22T23:46:32.879Z,23.99
2023-07-22T23:49:00.614Z,24.03
2023-07-22T23:51:29.137Z,23.89
2023-07-22T23:53:57.194Z,23.99
2023-07-22T23:56:24.963Z,23.93
2023-07-22T23:58:52.679Z,23.94
